Nyesville, Indiana
Current Conditions -  °F | °C
As of 10:15 PM on Monday 20 Oct 2014 (Local Time) from K4I7 Reporting Station
Broken Clouds Broken Clouds  
Wind Chill: 57°   Ceiling: 6000
Heat Index: 57°   Visibility: 10mi
Dew Point: 45°   Wind: 6mph
Humidity: 63%   Direction: 300°WNW
Pressure: 29.95"   Gusts: NA
Location:  39.7714°N, 87.1705°W
Report Text: K4I7 210215Z AUTO 30005KT 10SM BKN060 14/07 A2995 RMK AO2
Loading
Personal Weather Stations






























Interactive Weather Map
Tropical Storm Tracking
New forecast layout! Learn more

10-Day Weather Forecast

Advertisements
Track Severe Weather on mobile